Saturday, August 18, 2018, 3:15 AM EDT
Back to Local

KCEF, Chicopee Falls / Westover Air Force Base

Location: Chicopee, MA, United States Lat: 42.2
Local Time: 3:15 AM EDT ( 7:15 GMT) Lon: -72.533
Time Zone: US/Eastern Elev: 246 ft

Show me the last for .
Show Decoded

2018-08-18 02:36 METAR KCEF 180636Z AUTO 18005KT 10SM BKN007 OVC011 22/21 A2986 RMK AO2 CIG
                 007V010 SLP116 =
2018-08-18 02:26 METAR KCEF 180626Z AUTO 19006KT 10SM BKN010 22/21 A2986 RMK AO2 BKN V SCT SLP116
                 =
2018-08-18 01:56 METAR KCEF 180556Z AUTO 19007KT 10SM FEW015 22/21 A2987 RMK AO2
                 RAE08DZB08E13DZB14E15RAB15E26DZB26E32 SLP119 P0001 60083 T02200210 10255 20220
                 58017 =
2018-08-18 01:18 METAR KCEF 180518Z AUTO 18008KT 10SM CLR 22/22 A2988 RMK AO2
                 RAE08DZB08E13DZB14E15RAB15 SLP122 =
2018-08-18 01:14 METAR KCEF 180514Z AUTO 19007KT 10SM -DZ FEW006 22/21 A2988 RMK AO2
                 RAE08DZB08E13DZB14 SLP122 =
2018-08-18 01:13 METAR KCEF 180513Z AUTO 19007KT 10SM FEW006 22/21 A2988 RMK AO2 RAE08DZB08E13
                 SLP122 =
2018-08-18 01:11 METAR KCEF 180511Z AUTO 19006KT 10SM -DZ FEW006 22/21 A2989 RMK AO2 RAE08DZB08
                 SLP126 =
2018-08-18 00:56 METAR KCEF 180456Z AUTO 18004KT 10SM -RA BKN031 22/21 A2989 RMK AO2 TSE03 SLP126
                 P0019 T02200211 403130182 =
2018-08-18 00:39 METAR KCEF 180439Z AUTO 00000KT 7SM RA OVC040 22/21 A2989 RMK AO2 LTG DSNT E
                 TSE03 SLP126 =
2018-08-18 00:38 METAR KCEF 180438Z AUTO 00000KT 7SM CLR 22/21 A2989 RMK AO2 LTG DSNT E TSE03
                 SLP126 =
2018-08-18 00:03 METAR KCEF 180403Z AUTO 22009KT 6SM -RA BR VCTS FEW002 23/21 A2991 RMK AO2 TSE03
                 SLP133 =
2018-08-17 23:56 METAR KCEF 180356Z AUTO 23014G18KT 3SM TSRA BR FEW002 OVC036 23/22 A2991 RMK AO2
                 TSE11TSB37 SLP133 P0040 T02290217 =
2018-08-17 23:53 METAR KCEF 180353Z AUTO 23012G18KT 2 3/4SM TSRA BR FEW002 OVC036 23/22 A2991 RMK
                 AO2 VIS 1 1/2V4 TSE11TSB37 PRESFR SLP133 =
2018-08-17 23:38 METAR KCEF 180338Z AUTO 22009KT 6SM TSRA BR FEW003 23/22 A2993 RMK AO2
                 TSE11TSB37 SLP139 =
2018-08-17 23:37 METAR KCEF 180337Z AUTO 20008KT 6SM TSRA BR OVC045 23/22 A2992 RMK AO2
                 TSE11TSB37 SLP136 =
2018-08-17 23:15 METAR KCEF 180315Z AUTO 18008KT 6SM RA CLR 23/22 A2992 RMK AO2 LTG DSNT N AND
                 E-SE TSE11 SLP136 =
2018-08-17 23:14 METAR KCEF 180314Z AUTO 19007KT 7SM CLR 23/22 A2992 RMK AO2 LTG DSNT N AND E-SE
                 TSE11 SLP136 =
2018-08-17 23:11 METAR KCEF 180311Z AUTO 19006KT 7SM RA VCTS CLR 23/22 A2992 RMK AO2 TSE11 SLP136
                 =
2018-08-17 22:56 METAR KCEF 180256Z 20011G18KT 5SM -TSRA BR FEW002 FEW012 OVC030 OVC040 23/22
                 A2992 RMK AO2A SLP136 P0021 60023 T02330217 50000 =
2018-08-17 22:24 METAR KCEF 180224Z 22006KT 9SM -TSRA SCT022 OVC035 24/23 A2992 RMK AO2A SLP136 =
2018-08-17 22:15 METAR KCEF 180215Z 20007KT 4SM -TSRA BR SCT017 BKN035 OVC100 24/22 A2992 RMK
                 AO2A SLP136 =
2018-08-17 22:09 METAR KCEF 180209Z 19009KT 2SM TSRA FEW011 BKN040 OVC100 24/22 A2992 RMK AO2A
                 SLP136 =
2018-08-17 21:56 METAR KCEF 180156Z 20008KT 10SM -TSRA SCT040 OVC100 25/22 A2992 RMK AO2A SLP136
                 P0000 T02460221 =
2018-08-17 21:50 METAR KCEF 180150Z 19009KT 10SM -TSRA SCT040 BKN100 OVC200 25/22 A2992 RMK AO2A
                 SLP136 =
2018-08-17 21:22 METAR KCEF 180122Z 17007KT 10SM VCTS BKN090 150 25/22 A2992 RMK AO2A SLP136 =
2018-08-17 20:56 METAR KCEF 180056Z 18008KT 10SM -RA SCT010 SCT060 OVC100 25/23 A2993 RMK AO2A
                 SLP140 P0002 T02480225 =
2018-08-17 20:16 METAR KCEF 180016Z COR 17008KT 10SM -RA FEW005 BKN090 OVC200 25/23 A2991 RMK
                 AO2A SLP133 COR 0019 =
2018-08-17 19:56 METAR KCEF 172356Z 18009KT 10SM SCT090 SCT130 BKN200 25/23 A2992 RMK AO2A SLP136
                 60002 T02540225 10311 20254 55005 =
2018-08-17 18:56 METAR KCEF 172256Z 19008KT 10SM BKN100 OVC200 26/23 A2991 RMK AO2A SLP133 P0000
                 T02570233 =
2018-08-17 18:19 METAR KCEF 172219Z 16005KT 10SM FEW013 BKN040 BKN200 26/23 A2992 RMK AO2A LTG
                 DSNT S SLP137 =
2018-08-17 18:04 METAR KCEF 172204Z 19008KT 10SM TS BKN038 OVC200 26/23 A2993 RMK AO2A SLP140 =
2018-08-17 17:56 METAR KCEF 172156Z 19012KT 8SM -TSRA FEW013 BKN037 OVC200 28/23 A2993 RMK AO2A
                 SLP140 P0001 T02790228 =
2018-08-17 17:51 METAR KCEF 172151Z 19014KT 9SM -TSRA FEW020 BKN037 OVC200 29/22 A2993 RMK AO2A
                 SLP140 =
2018-08-17 17:47 METAR KCEF 172147Z 18012KT 10SM TS BKN038 BKN200 29/21 A2993 RMK AO2A SLP140 =
2018-08-17 16:56 METAR KCEF 172056Z 18012KT 10SM FEW045 SCT200 31/21 A2993 RMK AO2A SLP140 60001
                 T03050213 57021 =
2018-08-17 15:56 METAR KCEF 171956Z 19007KT 10SM FEW045 SCT150 BKN200 31/22 A2994 RMK AO2A SLP143
                 T03060222 =
2018-08-17 14:56 METAR KCEF 171856Z 19008KT 10SM FEW040 SCT150 OVC200 29/23 A2998 RMK AO2A LTG
                 DSNT NE SLP157 P0001 T02890228 =
2018-08-17 14:39 METAR KCEF 171839Z 20005KT 10SM FEW007 SCT040 SCT160 OVC200 28/23 A2999 RMK AO2A
                 SLP160 =
2018-08-17 14:34 METAR KCEF 171834Z 20007KT 10SM VCTS FEW007 SCT040 SCT160 OVC200 28/23 A2999 RMK
                 AO2A SLP160 =
2018-08-17 13:56 METAR KCEF 171756Z 21012G18KT 10SM -RA VCTS SCT040 SCT130 OVC200 30/22 A2999 RMK
                 AO2A SLP160 60000 T02970216 10313 20214 57023 =
2018-08-17 13:54 METAR KCEF 171754Z 21012G18KT 10SM -RA VCTS SCT040 SCT130 OVC200 30/21 A2999 RMK
                 AO2A SLP160 =
2018-08-17 13:42 METAR KCEF 171742Z 18011KT 10SM VCTS SCT040 SCT130 OVC210 31/22 A3000 RMK AO2A
                 LTG DSNT N SLP163 =
2018-08-17 12:56 METAR KCEF 171656Z 19009KT 10SM FEW040 FEW160 OVC200 31/22 A3001 RMK AO2A SLP167
                 T03050221 =
2018-08-17 11:56 METAR KCEF 171556Z 18006KT 10SM FEW018 SCT200 OVC250 29/22 A3004 RMK AO2A SLP177
                 T02910216 =
2018-08-17 10:56 METAR KCEF 171456Z 16003KT 10SM FEW180 SCT200 OVC250 27/22 A3006 RMK AO2A SLP184
                 T02700215 58004 =
2018-08-17 09:56 METAR KCEF 171356Z 00000KT 10SM FEW005 SCT250 25/21 A3007 RMK AO2A SLP187
                 T02510205 =
2018-08-17 08:56 METAR KCEF 171256Z 11003KT 10SM FEW003 SCT250 24/19 A3008 RMK AO2A SLP191
                 T02420192 =
2018-08-17 07:56 METAR KCEF 171156Z 01003KT 10SM FEW003 FEW180 21/21 A3008 RMK AO2A SLP191
                 T02130211 10213 20182 50001 =
2018-08-17 06:56 METAR KCEF 171056Z 00000KT 4SM BCFG FEW003 FEW180 19/19 A3008 RMK AO2A VIS E 1
                 1/2 SLP191 T01930191 =
2018-08-17 06:11 METAR KCEF 171011Z AUTO 00000KT 5SM BR CLR 19/18 A3008 RMK AO2 SLP190 =
2018-08-17 05:56 METAR KCEF 170956Z AUTO 00000KT 2 1/2SM BR CLR 19/19 A3008 RMK AO2 VIS 1 3/4V5
                 SLP190 T01870185 =
2018-08-17 05:50 METAR KCEF 170950Z AUTO 00000KT 2 1/4SM BR CLR 19/19 A3008 RMK AO2 VIS 2 1/4V9
                 SLP190 =
2018-08-17 05:35 METAR KCEF 170935Z AUTO 00000KT 9SM CLR 19/19 A3008 RMK AO2 SLP190 =
2018-08-17 05:20 METAR KCEF 170920Z AUTO 00000KT 1 1/8SM BR CLR 19/18 A3007 RMK AO2 VIS 7/8V1 3/4
                 SLP187 =
2018-08-17 05:14 METAR KCEF 170914Z AUTO 04003KT 1SM R23/4000VP6000FT BR CLR 18/18 A3007 RMK AO2
                 VIS 1V4 SLP187 =
2018-08-17 05:11 METAR KCEF 170911Z AUTO 03004KT 1 3/4SM BR CLR 18/18 A3007 RMK AO2 VIS 1 3/4V5
                 SLP187 =
2018-08-17 04:56 METAR KCEF 170856Z AUTO 04003KT 3SM BR CLR 19/18 A3007 RMK AO2 SLP187 T01850182
                 50002 =
2018-08-17 04:51 METAR KCEF 170851Z AUTO 04003KT 1 1/4SM BR CLR 19/18 A3007 RMK AO2 VIS 3/8V1 1/4
                 SLP187 =
2018-08-17 04:48 METAR KCEF 170848Z AUTO 05003KT 5/8SM R23/1800VP6000FT BR CLR 19/18 A3007 RMK
                 AO2 SLP187 =
2018-08-17 04:39 METAR KCEF 170839Z AUTO 05003KT 3/8SM R23/1600V3500FT FG CLR 19/19 A3007 RMK AO2
                 SLP187 =
2018-08-17 04:24 METAR KCEF 170824Z AUTO 00000KT 3/4SM R23/3000V5000FT BR CLR 19/19 A3007 RMK AO2
                 SLP187 =
2018-08-17 04:09 METAR KCEF 170809Z AUTO 00000KT 7/8SM R23/1600VP6000FT BR CLR 19/19 A3007 RMK
                 AO2 VIS 7/8V4 SLP187 =
2018-08-17 03:56 METAR KCEF 170756Z AUTO 00000KT 3SM BR CLR 20/20 A3007 RMK AO2 SLP187 T01980196
                 =
2018-08-17 03:45 METAR KCEF 170745Z AUTO 00000KT 1 5/8SM BR CLR 20/19 A3007 RMK AO2 VIS 1 5/8V4
                 SLP187 =
2018-08-17 03:30 METAR KCEF 170730Z AUTO 00000KT 1 1/8SM R23/6000FT BR CLR 19/19 A3007 RMK AO2
                 VIS 5/8V1 1/8 SLP187 =
2018-08-17 03:27 METAR KCEF 170727Z AUTO 00000KT 5/8SM R23/2600VP6000FT BR CLR 19/18 A3006 RMK
                 AO2 SLP184 =

Support USWX by starting your Amazon purchase here.